createdAt,value
2022-08-17T00:00:43.353Z,100999.38
2022-08-17T00:03:02.865Z,100993.69
2022-08-17T00:05:31.597Z,100986.25
2022-08-17T00:07:58.507Z,100991.22
2022-08-17T00:10:25.276Z,100991.69
2022-08-17T00:12:52.495Z,100990.91
2022-08-17T00:15:21.143Z,100997.38
2022-08-17T00:17:50.172Z,100991.69
2022-08-17T00:20:17.449Z,100992.91
2022-08-17T00:22:46.529Z,100989.44
2022-08-17T00:25:16.635Z,100992.44
2022-08-17T00:27:43.094Z,100997.06
2022-08-17T00:30:11.637Z,100989.44
2022-08-17T00:33:12.213Z,100992.44
2022-08-17T00:35:34.703Z,100998.78
2022-08-17T00:38:01.198Z,100996.78
2022-08-17T00:40:27.893Z,100989.34
2022-08-17T00:43:35.956Z,100983.47
2022-08-17T00:46:14.520Z,100993.25
2022-08-17T00:48:42.198Z,100991.34
2022-08-17T00:51:22.917Z,100993.03
2022-08-17T00:54:04.649Z,100997.75
2022-08-17T00:56:44.952Z,100989.31
2022-08-17T00:59:14.714Z,100998.41
2022-08-17T01:01:41.705Z,100992.03
2022-08-17T01:04:08.663Z,100995.97
2022-08-17T01:06:35.683Z,100999.66
2022-08-17T01:09:03.815Z,101001.91
2022-08-17T01:11:32.740Z,101010.06
2022-08-17T01:13:59.172Z,101002.47
2022-08-17T01:16:30.657Z,101007.63
2022-08-17T01:19:00.466Z,101009.09
2022-08-17T01:21:39.380Z,101015.75
2022-08-17T01:24:06.079Z,101007.56
2022-08-17T01:26:33.332Z,101004.63
2022-08-17T01:29:00.705Z,100997.59
2022-08-17T01:31:30.856Z,100991.28
2022-08-17T01:34:00.584Z,101001.91
2022-08-17T01:36:28.383Z,100994.47
2022-08-17T01:38:55.005Z,100984.28
2022-08-17T01:41:21.880Z,100989.94
2022-08-17T01:43:54.553Z,100994.84
2022-08-17T01:46:28.199Z,100992.91
2022-08-17T01:48:56.274Z,100999.03
2022-08-17T01:51:23.645Z,100996.28
2022-08-17T01:53:57.445Z,101001.66
2022-08-17T01:56:24.689Z,100998.50
2022-08-17T01:58:51.817Z,101005.41
2022-08-17T02:01:21.557Z,100989.41
2022-08-17T02:03:59.396Z,100993.78
2022-08-17T02:06:31.390Z,100989.06
2022-08-17T02:09:09.531Z,100986.47
2022-08-17T02:11:43.664Z,100982.97
2022-08-17T02:14:11.836Z,100985.00
2022-08-17T02:16:40.231Z,100977.69
2022-08-17T02:19:08.992Z,100972.47
2022-08-17T02:21:36.819Z,100969.25
2022-08-17T02:24:04.993Z,100969.53
2022-08-17T02:26:31.604Z,100973.28
2022-08-17T02:28:58.058Z,100976.22
2022-08-17T02:31:24.485Z,100976.41
2022-08-17T02:34:04.210Z,100968.50
2022-08-17T02:36:35.598Z,100957.13
2022-08-17T02:39:07.336Z,100965.53
2022-08-17T02:41:34.229Z,100968.66
2022-08-17T02:44:00.759Z,100970.56
2022-08-17T02:46:28.321Z,100965.56
2022-08-17T02:48:54.880Z,100966.47
2022-08-17T02:51:21.297Z,100960.78
2022-08-17T02:53:47.978Z,100950.75
2022-08-17T02:56:14.441Z,100954.94
2022-08-17T02:58:40.901Z,100956.09
2022-08-17T03:01:09.969Z,100953.53
2022-08-17T03:03:37.319Z,100950.97
2022-08-17T03:06:04.421Z,100952.66
2022-08-17T03:08:31.301Z,100958.91
2022-08-17T03:10:57.716Z,100962.44
2022-08-17T03:13:24.218Z,100965.47
2022-08-17T03:15:50.861Z,100970.75
2022-08-17T03:18:25.786Z,100963.81
2022-08-17T03:20:57.896Z,100964.81
2022-08-17T03:23:25.482Z,100956.81
2022-08-17T03:25:53.755Z,100953.97
2022-08-17T03:28:21.580Z,100954.19
2022-08-17T03:30:48.322Z,100958.06
2022-08-17T03:33:14.965Z,100954.13
2022-08-17T03:35:41.853Z,100957.94
2022-08-17T03:38:15.194Z,100958.78
2022-08-17T03:40:57.135Z,100955.41
2022-08-17T03:43:27.565Z,100954.19
2022-08-17T03:46:27.940Z,100961.56
2022-08-17T03:49:22.250Z,100950.22
2022-08-17T03:52:07.332Z,100959.53
2022-08-17T03:54:52.246Z,100960.91
2022-08-17T03:57:19.221Z,100963.38
2022-08-17T03:59:45.940Z,100959.50
2022-08-17T04:02:24.782Z,100965.03
2022-08-17T04:04:52.117Z,100966.03
2022-08-17T04:07:22.727Z,100964.94
2022-08-17T04:09:49.703Z,100970.47
2022-08-17T04:12:18.497Z,100965.66
2022-08-17T04:14:52.243Z,100969.38
2022-08-17T04:17:21.316Z,100959.44
2022-08-17T04:19:47.753Z,100963.53
2022-08-17T04:22:30.582Z,100961.88
2022-08-17T04:24:58.133Z,100961.72
2022-08-17T04:27:25.379Z,100960.44
2022-08-17T04:29:54.615Z,100974.19
2022-08-17T04:32:59.376Z,100966.91
2022-08-17T04:35:09.682Z,100966.38
2022-08-17T04:37:36.173Z,100974.94
2022-08-17T04:40:21.367Z,100973.38
2022-08-17T04:43:07.548Z,100974.41
2022-08-17T04:45:34.921Z,100975.75
2022-08-17T04:48:01.562Z,100977.66
2022-08-17T04:50:28.203Z,100984.72
2022-08-17T04:52:54.853Z,100992.25
2022-08-17T04:55:21.787Z,100983.69
2022-08-17T04:57:48.278Z,100992.66
2022-08-17T05:00:15.103Z,100993.16
2022-08-17T05:02:49.788Z,100997.97
2022-08-17T05:05:20.825Z,101000.00
2022-08-17T05:07:47.553Z,101006.75
2022-08-17T05:10:16.752Z,101003.69
2022-08-17T05:12:43.561Z,101002.53
2022-08-17T05:15:16.127Z,101007.22
2022-08-17T05:17:43.715Z,101006.22
2022-08-17T05:20:10.565Z,101010.22
2022-08-17T05:22:37.227Z,101005.88
2022-08-17T05:25:03.798Z,101013.56
2022-08-17T05:27:35.079Z,101011.06
2022-08-17T05:30:02.234Z,101014.56
2022-08-17T05:32:39.006Z,101017.53
2022-08-17T05:35:07.096Z,101000.44
2022-08-17T05:37:33.587Z,101010.09
2022-08-17T05:40:00.141Z,101013.66
2022-08-17T05:42:26.762Z,101012.88
2022-08-17T05:44:53.242Z,101011.47
2022-08-17T05:47:20.835Z,101010.25
2022-08-17T05:49:49.028Z,101011.25
2022-08-17T05:52:46.324Z,101013.72
2022-08-17T05:55:35.642Z,101020.63
2022-08-17T05:58:27.202Z,101014.75
2022-08-17T06:01:04.243Z,101016.72
2022-08-17T06:03:40.588Z,101021.13
2022-08-17T06:06:31.405Z,101017.94
2022-08-17T06:09:13.258Z,101016.47
2022-08-17T06:12:21.963Z,101022.16
2022-08-17T06:15:07.428Z,101023.63
2022-08-17T06:17:34.367Z,101022.16
2022-08-17T06:20:06.712Z,101018.41
2022-08-17T06:22:36.859Z,101023.31
2022-08-17T06:25:09.994Z,101024.56
2022-08-17T06:27:40.689Z,101019.53
2022-08-17T06:30:27.350Z,101023.28
2022-08-17T06:32:57.473Z,101026.38
2022-08-17T06:35:47.620Z,101019.91
2022-08-17T06:38:38.188Z,101033.03
2022-08-17T06:41:12.256Z,101039.09
2022-08-17T06:44:06.347Z,101034.78
2022-08-17T06:46:48.472Z,101026.16
2022-08-17T06:49:22.635Z,101020.09
2022-08-17T06:51:58.076Z,101013.22
2022-08-17T06:54:39.170Z,101027.31
2022-08-17T06:57:28.260Z,101032.84
2022-08-17T06:59:57.853Z,101035.06
2022-08-17T07:02:51.011Z,101040.94
2022-08-17T07:05:21.709Z,101038.25
2022-08-17T07:08:03.098Z,101036.06
2022-08-17T07:10:37.268Z,101032.25
2022-08-17T07:13:29.363Z,101028.69
2022-08-17T07:16:15.914Z,101022.16
2022-08-17T07:18:43.750Z,101030.84
2022-08-17T07:21:42.423Z,101031.75
2022-08-17T07:24:30.193Z,101025.47
2022-08-17T07:27:04.655Z,101031.94
2022-08-17T07:29:34.284Z,101023.94
2022-08-17T07:32:00.703Z,101022.84
2022-08-17T07:34:27.237Z,101019.59
2022-08-17T07:37:05.361Z,101026.94
2022-08-17T07:39:31.843Z,101027.03
2022-08-17T07:42:03.519Z,101019.97
2022-08-17T07:44:30.033Z,101021.69
2022-08-17T07:47:15.706Z,101030.41
2022-08-17T07:49:47.403Z,101022.38
2022-08-17T07:52:50.692Z,101029.75
2022-08-17T07:55:32.715Z,101027.53
2022-08-17T07:57:59.519Z,101023.91
2022-08-17T08:00:32.079Z,101028.81
2022-08-17T08:03:17.680Z,101031.00
2022-08-17T08:05:51.539Z,101036.25
2022-08-17T08:08:26.161Z,101041.88
2022-08-17T08:11:02.295Z,101035.31
2022-08-17T08:13:30.152Z,101029.88
2022-08-17T08:16:24.428Z,101036.50
2022-08-17T08:18:57.963Z,101048.09
2022-08-17T08:21:30.690Z,101045.50
2022-08-17T08:24:15.930Z,101041.53
2022-08-17T08:27:07.137Z,101044.75
2022-08-17T08:30:05.187Z,101046.19
2022-08-17T08:32:48.596Z,101042.09
2022-08-17T08:35:20.292Z,101043.63
2022-08-17T08:38:00.013Z,101049.41
2022-08-17T08:40:43.248Z,101053.63
2022-08-17T08:43:52.212Z,101050.88
2022-08-17T08:46:47.145Z,101052.81
2022-08-17T08:49:45.265Z,101049.56
2022-08-17T08:52:27.818Z,101049.19
2022-08-17T08:55:03.266Z,101047.72
2022-08-17T08:57:37.148Z,101051.41
2022-08-17T09:00:18.123Z,101058.22
2022-08-17T09:03:03.319Z,101062.63
2022-08-17T09:05:56.185Z,101059.50
2022-08-17T09:08:55.859Z,101060.97
2022-08-17T09:11:25.241Z,101065.53
2022-08-17T09:14:00.734Z,101059.81
2022-08-17T09:16:33.113Z,101058.19
2022-08-17T09:19:19.408Z,101067.00
2022-08-17T09:21:54.530Z,101063.16
2022-08-17T09:24:43.191Z,101061.47
2022-08-17T09:27:23.929Z,101059.19
2022-08-17T09:30:07.840Z,101062.63
2022-08-17T09:32:38.692Z,101062.47
2022-08-17T09:35:33.785Z,101065.69
2022-08-17T09:38:29.128Z,101071.09
2022-08-17T09:41:26.104Z,101066.28
2022-08-17T09:44:30.051Z,101055.50
2022-08-17T09:47:10.486Z,101061.13
2022-08-17T09:49:45.624Z,101064.38
2022-08-17T09:52:17.922Z,101054.44
2022-08-17T09:54:45.262Z,101056.09
2022-08-17T09:57:42.767Z,101045.50
2022-08-17T10:00:17.824Z,101044.47
2022-08-17T10:03:08.376Z,101045.22
2022-08-17T10:05:56.596Z,101041.88
2022-08-17T10:08:36.120Z,101038.34
2022-08-17T10:11:16.033Z,101041.78
2022-08-17T10:14:01.914Z,101032.03
2022-08-17T10:17:02.760Z,101030.56
2022-08-17T10:19:36.563Z,101037.22
2022-08-17T10:22:34.964Z,101023.19
2022-08-17T10:25:27.872Z,101020.81
2022-08-17T10:28:14.262Z,101024.06
2022-08-17T10:31:01.423Z,101025.72
2022-08-17T10:33:49.351Z,101033.19
2022-08-17T10:36:22.627Z,101036.25
2022-08-17T10:39:52.671Z,101029.69
2022-08-17T10:42:33.031Z,101031.50
2022-08-17T10:45:07.339Z,101034.06
2022-08-17T10:48:04.665Z,101020.44
2022-08-17T10:50:59.839Z,101016.88
2022-08-17T10:53:32.264Z,101015.84
2022-08-17T10:56:13.904Z,101027.47
2022-08-17T10:58:49.393Z,101025.97
2022-08-17T11:01:17.022Z,101025.69
2022-08-17T11:03:52.376Z,101033.97
2022-08-17T11:06:39.034Z,101027.56
2022-08-17T11:09:31.575Z,101038.66
2022-08-17T11:12:07.259Z,101027.44
2022-08-17T11:14:52.498Z,101026.13
2022-08-17T11:17:43.240Z,101026.00
2022-08-17T11:20:54.240Z,101018.41
2022-08-17T11:23:39.898Z,101032.41
2022-08-17T11:26:27.274Z,101022.44
2022-08-17T11:28:59.515Z,101023.19
2022-08-17T11:31:39.254Z,101019.69
2022-08-17T11:34:23.331Z,101016.38
2022-08-17T11:36:49.635Z,101020.28
2022-08-17T11:39:43.157Z,101016.38
2022-08-17T11:42:27.885Z,101022.19
2022-08-17T11:45:32.073Z,101013.56
2022-08-17T11:48:36.047Z,101016.13
2022-08-17T11:51:35.656Z,101015.31
2022-08-17T11:54:31.706Z,101013.97
2022-08-17T11:56:53.320Z,101018.59
2022-08-17T11:59:43.799Z,101011.75
2022-08-17T12:02:31.773Z,101014.28
2022-08-17T12:05:26.044Z,101013.72
2022-08-17T12:08:01.379Z,101003.09
2022-08-17T12:10:33.013Z,101000.44
2022-08-17T12:13:05.931Z,101001.16
2022-08-17T12:15:36.539Z,101006.63
2022-08-17T12:18:03.513Z,101006.00
2022-08-17T12:20:33.728Z,101011.66
2022-08-17T12:23:21.779Z,101008.22
2022-08-17T12:25:59.381Z,101007.31
2022-08-17T12:28:29.035Z,101013.72
2022-08-17T12:31:01.100Z,101000.63
2022-08-17T12:33:28.907Z,101003.41
2022-08-17T12:36:03.606Z,100993.47
2022-08-17T12:38:34.381Z,100999.22
2022-08-17T12:41:25.110Z,101003.91
2022-08-17T12:44:03.658Z,100998.16
2022-08-17T12:46:45.032Z,100993.63
2022-08-17T12:49:22.890Z,100994.50
2022-08-17T12:51:50.847Z,100983.75
2022-08-17T12:54:45.133Z,100993.94
2022-08-17T12:57:18.900Z,100988.50
2022-08-17T12:59:50.522Z,100979.38
2022-08-17T13:02:22.700Z,100976.28
2022-08-17T13:04:49.351Z,100978.94
2022-08-17T13:07:36.086Z,100976.88
2022-08-17T13:10:03.454Z,100970.31
2022-08-17T13:12:33.526Z,100965.13
2022-08-17T13:15:00.560Z,100965.94
2022-08-17T13:17:30.456Z,100962.31
2022-08-17T13:19:57.370Z,100970.38
2022-08-17T13:22:25.454Z,100965.63
2022-08-17T13:24:55.181Z,100962.47
2022-08-17T13:27:24.482Z,100960.69
2022-08-17T13:29:53.796Z,100960.22
2022-08-17T13:32:35.839Z,100967.31
2022-08-17T13:35:50.111Z,100957.59
2022-08-17T13:38:40.409Z,100962.47
2022-08-17T13:41:07.502Z,100955.06
2022-08-17T13:43:46.008Z,100954.78
2022-08-17T13:46:18.476Z,100955.63
2022-08-17T13:48:46.283Z,100957.53
2022-08-17T13:51:15.935Z,100949.03
2022-08-17T13:53:42.351Z,100956.63
2022-08-17T13:56:36.940Z,100962.31
2022-08-17T13:59:03.602Z,100952.88
2022-08-17T14:01:50.937Z,100946.88
2022-08-17T14:04:31.599Z,100945.13
2022-08-17T14:07:02.720Z,100937.97
2022-08-17T14:09:37.415Z,100940.50
2022-08-17T14:12:08.539Z,100941.94
2022-08-17T14:14:35.278Z,100933.50
2022-08-17T14:17:01.838Z,100931.75
2022-08-17T14:19:28.293Z,100938.00
2022-08-17T14:21:58.869Z,100931.00
2022-08-17T14:24:31.187Z,100924.72
2022-08-17T14:26:59.083Z,100930.31
2022-08-17T14:29:27.890Z,100931.22
2022-08-17T14:31:55.219Z,100932.50
2022-08-17T14:34:23.021Z,100931.41
2022-08-17T14:36:49.719Z,100929.00
2022-08-17T14:39:16.518Z,100922.91
2022-08-17T14:41:43.465Z,100921.09
2022-08-17T14:44:12.533Z,100926.09
2022-08-17T14:46:43.378Z,100917.34
2022-08-17T14:49:11.233Z,100915.78
2022-08-17T14:51:43.748Z,100907.69
2022-08-17T14:54:11.763Z,100910.50
2022-08-17T14:57:15.562Z,100899.69
2022-08-17T14:59:44.680Z,100898.59
2022-08-17T15:02:11.246Z,100902.03
2022-08-17T15:04:41.865Z,100906.66
2022-08-17T15:07:11.480Z,100902.03
2022-08-17T15:09:37.922Z,100894.94
2022-08-17T15:12:06.470Z,100899.59
2022-08-17T15:14:34.914Z,100895.69
2022-08-17T15:17:03.432Z,100894.63
2022-08-17T15:19:29.893Z,100892.50
2022-08-17T15:21:56.318Z,100890.69
2022-08-17T15:24:22.809Z,100879.44
2022-08-17T15:26:49.260Z,100878.09
2022-08-17T15:29:15.852Z,100890.81
2022-08-17T15:31:42.302Z,100886.00
2022-08-17T15:34:08.776Z,100884.53
2022-08-17T15:36:35.830Z,100879.75
2022-08-17T15:39:03.106Z,100884.75
2022-08-17T15:41:29.847Z,100892.75
2022-08-17T15:43:56.460Z,100888.22
2022-08-17T15:46:25.623Z,100881.47
2022-08-17T15:48:56.567Z,100880.03
2022-08-17T15:51:28.996Z,100878.53
2022-08-17T15:54:22.123Z,100880.16
2022-08-17T15:56:49.507Z,100879.22
2022-08-17T15:59:15.986Z,100869.31
2022-08-17T16:02:29.867Z,100873.31
2022-08-17T16:04:30.829Z,100865.38
2022-08-17T16:06:59.299Z,100868.44
2022-08-17T16:09:25.784Z,100861.13
2022-08-17T16:11:55.060Z,100859.69
2022-08-17T16:14:22.382Z,100859.09
2022-08-17T16:16:50.516Z,100857.38
2022-08-17T16:19:17.102Z,100854.56
2022-08-17T16:21:43.564Z,100854.44
2022-08-17T16:24:13.237Z,100856.84
2022-08-17T16:26:40.387Z,100860.75
2022-08-17T16:29:07.204Z,100861.38
2022-08-17T16:31:34.318Z,100857.94
2022-08-17T16:34:17.266Z,100854.09
2022-08-17T16:36:55.198Z,100850.81
2022-08-17T16:39:27.355Z,100851.22
2022-08-17T16:41:54.448Z,100844.59
2022-08-17T16:44:21.647Z,100840.56
2022-08-17T16:46:48.522Z,100835.84
2022-08-17T16:49:29.671Z,100846.13
2022-08-17T16:52:03.273Z,100843.38
2022-08-17T16:54:29.774Z,100847.94
2022-08-17T16:56:56.240Z,100851.94
2022-08-17T16:59:38.826Z,100850.13
2022-08-17T17:02:11.053Z,100852.41
2022-08-17T17:05:08.002Z,100864.91
2022-08-17T17:07:40.535Z,100870.78
2022-08-17T17:10:13.546Z,100902.81
2022-08-17T17:13:03.015Z,100903.19
2022-08-17T17:15:35.493Z,100915.78
2022-08-17T17:18:06.168Z,100919.44
2022-08-17T17:20:47.972Z,100914.38
2022-08-17T17:23:28.145Z,100919.22
2022-08-17T17:26:32.185Z,100914.38
2022-08-17T17:29:11.033Z,100908.16
2022-08-17T17:31:51.192Z,100899.00
2022-08-17T17:34:18.412Z,100898.28
2022-08-17T17:36:54.166Z,100900.38
2022-08-17T17:39:37.008Z,100906.03
2022-08-17T17:42:07.562Z,100915.06
2022-08-17T17:44:38.269Z,100919.63
2022-08-17T17:47:05.184Z,100913.25
2022-08-17T17:49:43.882Z,100915.81
2022-08-17T17:52:36.119Z,100916.41
2022-08-17T17:55:23.637Z,100919.78
2022-08-17T17:58:04.825Z,100925.28
2022-08-17T18:00:39.584Z,100919.00
2022-08-17T18:03:27.887Z,100907.22
2022-08-17T18:05:57.583Z,100904.00
2022-08-17T18:08:34.852Z,100906.16
2022-08-17T18:11:34.790Z,100912.94
2022-08-17T18:14:31.545Z,100904.66
2022-08-17T18:17:00.210Z,100926.41
2022-08-17T18:19:29.202Z,100922.00
2022-08-17T18:22:05.069Z,100924.25
2022-08-17T18:24:39.226Z,100923.38
2022-08-17T18:27:23.317Z,100929.66
2022-08-17T18:29:55.003Z,100935.94
2022-08-17T18:32:28.295Z,100938.31
2022-08-17T18:35:09.606Z,100938.22
2022-08-17T18:37:39.094Z,100948.97
2022-08-17T18:40:18.232Z,100933.47
2022-08-17T18:42:56.083Z,100928.94
2022-08-17T18:45:45.112Z,100936.50
2022-08-17T18:48:33.095Z,100927.47
2022-08-17T18:51:07.703Z,100934.34
2022-08-17T18:53:40.607Z,100936.88
2022-08-17T18:56:22.162Z,100938.16
2022-08-17T18:58:57.048Z,100941.47
2022-08-17T19:01:47.137Z,100941.63
2022-08-17T19:04:28.376Z,100949.75
2022-08-17T19:07:11.258Z,100949.75
2022-08-17T19:09:45.929Z,100946.09
2022-08-17T19:12:36.467Z,100953.69
2022-08-17T19:15:03.275Z,100949.91
2022-08-17T19:17:39.995Z,100945.63
2022-08-17T19:20:17.132Z,100953.00
2022-08-17T19:22:54.686Z,100947.25
2022-08-17T19:25:27.018Z,100951.41
2022-08-17T19:28:03.226Z,100945.84
2022-08-17T19:30:30.199Z,100958.53
2022-08-17T19:32:58.378Z,100956.44
2022-08-17T19:35:27.749Z,100950.41
2022-08-17T19:38:12.882Z,100947.66
2022-08-17T19:40:53.544Z,100942.72
2022-08-17T19:43:34.668Z,100940.09
2022-08-17T19:46:10.213Z,100937.13
2022-08-17T19:48:39.524Z,100936.91
2022-08-17T19:51:30.755Z,100933.88
2022-08-17T19:54:14.057Z,100928.94
2022-08-17T19:56:55.800Z,100922.25
2022-08-17T19:59:25.255Z,100920.75
2022-08-17T20:01:54.586Z,100921.25
2022-08-17T20:04:31.779Z,100913.16
2022-08-17T20:07:06.718Z,100919.63
2022-08-17T20:09:44.495Z,100902.56
2022-08-17T20:12:14.500Z,100910.28
2022-08-17T20:14:55.118Z,100917.97
2022-08-17T20:17:25.072Z,100908.59
2022-08-17T20:20:21.441Z,100912.38
2022-08-17T20:22:54.832Z,100915.34
2022-08-17T20:25:36.458Z,100917.81
2022-08-17T20:28:17.492Z,100915.88
2022-08-17T20:30:44.309Z,100929.75
2022-08-17T20:33:32.323Z,100932.28
2022-08-17T20:36:10.864Z,100939.97
2022-08-17T20:38:41.070Z,100939.72
2022-08-17T20:41:17.843Z,100949.19
2022-08-17T20:43:51.223Z,100949.88
2022-08-17T20:46:34.127Z,100954.84
2022-08-17T20:49:23.898Z,100958.78
2022-08-17T20:52:09.027Z,100963.06
2022-08-17T20:54:57.308Z,100960.34
2022-08-17T20:57:32.985Z,100956.66
2022-08-17T21:00:15.268Z,100950.44
2022-08-17T21:02:49.202Z,100955.88
2022-08-17T21:05:34.478Z,100965.28
2022-08-17T21:08:28.439Z,100966.25
2022-08-17T21:10:55.620Z,100976.16
2022-08-17T21:13:34.772Z,100975.19
2022-08-17T21:16:08.013Z,100973.72
2022-08-17T21:18:40.348Z,100973.22
2022-08-17T21:21:31.835Z,100989.03
2022-08-17T21:24:20.036Z,100988.25
2022-08-17T21:26:58.623Z,100992.72
2022-08-17T21:29:30.943Z,100991.72
2022-08-17T21:31:59.081Z,100985.78
2022-08-17T21:34:36.463Z,100995.19
2022-08-17T21:37:28.536Z,101001.88
2022-08-17T21:40:21.421Z,101007.03
2022-08-17T21:42:51.456Z,101011.28
2022-08-17T21:45:25.734Z,101007.81
2022-08-17T21:48:21.144Z,101002.63
2022-08-17T21:51:11.327Z,101002.88
2022-08-17T21:53:50.541Z,101003.84
2022-08-17T21:56:25.014Z,101006.84
2022-08-17T21:59:01.170Z,101009.75
2022-08-17T22:01:34.606Z,101006.09
2022-08-17T22:04:11.347Z,101017.94
2022-08-17T22:06:55.820Z,101015.72
2022-08-17T22:09:30.062Z,101023.16
2022-08-17T22:12:05.197Z,101022.66
2022-08-17T22:14:53.243Z,101021.91
2022-08-17T22:17:23.463Z,101016.22
2022-08-17T22:19:56.565Z,101015.22
2022-08-17T22:22:33.727Z,101012.25
2022-08-17T22:25:08.495Z,101013.25
2022-08-17T22:27:46.651Z,101007.09
2022-08-17T22:30:32.938Z,101009.25
2022-08-17T22:33:00.814Z,101003.78
2022-08-17T22:35:32.587Z,101005.22
2022-08-17T22:38:20.608Z,100997.13
2022-08-17T22:40:51.991Z,100995.91
2022-08-17T22:43:25.873Z,100992.97
2022-08-17T22:45:55.545Z,100994.97
2022-08-17T22:48:27.565Z,100994.72
2022-08-17T22:51:12.507Z,100999.91
2022-08-17T22:54:14.976Z,100993.72
2022-08-17T22:57:14.324Z,100986.56
2022-08-17T22:59:49.151Z,100993.22
2022-08-17T23:02:20.296Z,100997.44
2022-08-17T23:04:51.283Z,100997.19
2022-08-17T23:07:19.011Z,100993.44
2022-08-17T23:09:45.877Z,100996.94
2022-08-17T23:12:16.352Z,100989.53
2022-08-17T23:14:45.767Z,100994.22
2022-08-17T23:17:12.797Z,100990.03
2022-08-17T23:19:39.713Z,100987.06
2022-08-17T23:22:07.531Z,100977.91
2022-08-17T23:24:43.718Z,100981.13
2022-08-17T23:27:10.701Z,100982.84
2022-08-17T23:29:39.341Z,100981.63
2022-08-17T23:32:06.445Z,100986.06
2022-08-17T23:34:32.966Z,100984.09
2022-08-17T23:37:02.124Z,100991.00
2022-08-17T23:39:28.662Z,100993.22
2022-08-17T23:41:59.331Z,100982.84
2022-08-17T23:44:26.644Z,101001.63
2022-08-17T23:46:54.091Z,100993.25
2022-08-17T23:49:20.881Z,100993.22
2022-08-17T23:51:48.335Z,101001.63
2022-08-17T23:54:26.647Z,100992.47
2022-08-17T23:56:53.139Z,100984.81
2022-08-17T23:59:21.478Z,100998.16
